createdAt,value
2023-05-02T00:02:44.394Z,7.18
2023-05-02T00:07:48.760Z,12.75
2023-05-02T00:12:51.550Z,8.07
2023-05-02T00:17:54.352Z,7.88
2023-05-02T00:22:58.021Z,6.32
2023-05-02T00:28:04.825Z,5.22
2023-05-02T00:33:07.839Z,5.68
2023-05-02T00:38:10.521Z,4.90
2023-05-02T00:43:13.293Z,6.80
2023-05-02T00:48:16.038Z,4.20
2023-05-02T00:53:18.844Z,4.95
2023-05-02T00:58:21.612Z,4.07
2023-05-02T01:03:40.590Z,3.63
2023-05-02T01:09:47.379Z,3.28
2023-05-02T01:14:55.931Z,3.30
2023-05-02T01:20:06.679Z,3.45
2023-05-02T01:25:17.950Z,3.00
2023-05-02T01:30:22.348Z,2.80
2023-05-02T01:35:26.969Z,2.75
2023-05-02T01:40:30.879Z,3.05
2023-05-02T01:45:36.688Z,3.17
2023-05-02T01:50:42.938Z,4.20
2023-05-02T01:55:47.412Z,8.93
2023-05-02T02:00:50.413Z,5.90
2023-05-02T02:05:55.288Z,8.10
2023-05-02T02:11:12.672Z,5.82
2023-05-02T02:16:32.054Z,37.70
2023-05-02T02:21:37.022Z,20.30
2023-05-02T02:31:42.272Z,5.47
2023-05-02T02:36:47.504Z,5.20
2023-05-02T02:42:19.621Z,5.57
2023-05-02T02:47:57.077Z,6.38
2023-05-02T02:53:16.258Z,4.63
2023-05-02T02:58:37.829Z,5.65
2023-05-02T03:03:42.573Z,4.95
2023-05-02T03:08:47.043Z,5.00
2023-05-02T03:13:49.780Z,7.10
2023-05-02T03:18:53.450Z,4.78
2023-05-02T03:23:56.250Z,5.85
2023-05-02T03:28:59.287Z,4.82
2023-05-02T03:34:10.775Z,4.88
2023-05-02T03:39:13.526Z,4.75
2023-05-02T03:44:16.186Z,4.78
2023-05-02T03:49:20.442Z,5.25
2023-05-02T03:54:23.842Z,4.07
2023-05-02T03:59:26.523Z,4.57
2023-05-02T04:04:29.686Z,4.32
2023-05-02T04:09:32.397Z,4.32
2023-05-02T04:14:35.598Z,4.65
2023-05-02T04:19:38.160Z,5.20
2023-05-02T04:24:41.290Z,4.70
2023-05-02T04:29:54.840Z,4.72
2023-05-02T04:34:57.378Z,5.43
2023-05-02T04:40:00.388Z,4.10
2023-05-02T04:45:03.297Z,8.27
2023-05-02T04:50:06.688Z,3.97
2023-05-02T04:55:09.642Z,3.60
2023-05-02T05:00:12.925Z,4.85
2023-05-02T05:05:25.616Z,4.22
2023-05-02T05:10:28.943Z,3.88
2023-05-02T05:15:31.474Z,4.13
2023-05-02T05:20:34.517Z,10.30
2023-05-02T05:25:37.437Z,90.05
2023-05-02T05:30:50.091Z,16.98
2023-05-02T05:35:52.759Z,12.95
2023-05-02T05:40:55.652Z,17.65
2023-05-02T05:45:58.637Z,24.25
2023-05-02T05:51:06.325Z,15.80
2023-05-02T05:56:15.411Z,7.65
2023-05-02T06:01:18.179Z,6.93
2023-05-02T06:06:20.724Z,5.40
2023-05-02T06:11:23.401Z,27.27
2023-05-02T06:16:26.182Z,1999.90
2023-05-02T06:21:29.202Z,1999.90
2023-05-02T06:26:41.760Z,1999.90
2023-05-02T06:31:44.450Z,1999.90
2023-05-02T06:36:47.143Z,1999.90
2023-05-02T06:41:49.736Z,1999.90
2023-05-02T06:46:52.483Z,1999.90
2023-05-02T06:51:55.157Z,1999.90
2023-05-02T06:56:58.057Z,1999.90
2023-05-02T07:02:01.009Z,1999.90
2023-05-02T07:07:14.255Z,1999.90
2023-05-02T07:12:17.093Z,1999.90
2023-05-02T07:17:20.434Z,1999.90
2023-05-02T07:22:22.984Z,1999.90
2023-05-02T07:27:26.016Z,1999.90
2023-05-02T07:32:28.964Z,1999.90
2023-05-02T07:37:36.176Z,1999.90
2023-05-02T07:42:39.072Z,1999.90
2023-05-02T07:48:00.508Z,1999.90
2023-05-02T07:53:03.446Z,1999.90
2023-05-02T07:58:16.126Z,1999.90
2023-05-02T08:03:18.932Z,1999.90
2023-05-02T08:08:21.566Z,1999.90
2023-05-02T08:13:24.525Z,1999.90
2023-05-02T08:18:27.283Z,1999.90
2023-05-02T08:23:30.007Z,1999.90
2023-05-02T08:28:32.957Z,1999.90
2023-05-02T08:33:35.926Z,1999.90
2023-05-02T08:38:38.753Z,1999.90
2023-05-02T08:43:42.032Z,1999.90
2023-05-02T08:48:46.616Z,1999.90
2023-05-02T08:53:51.204Z,1999.90
2023-05-02T08:58:53.807Z,1999.90
2023-05-02T09:03:59.193Z,1999.90
2023-05-02T09:09:02.027Z,1999.90
2023-05-02T09:14:16.653Z,1999.90
2023-05-02T09:24:30.491Z,1999.90
2023-05-02T09:29:38.870Z,1999.90
2023-05-02T09:34:42.051Z,1999.90
2023-05-02T09:40:07.246Z,1999.90
2023-05-02T09:45:10.603Z,1999.90
2023-05-02T09:50:13.615Z,125.45
2023-05-02T09:55:23.289Z,6.32
2023-05-02T10:00:45.892Z,8.60
2023-05-02T10:05:55.243Z,5.57
2023-05-02T10:14:01.368Z,2.05
2023-05-02T10:19:10.016Z,3.00
2023-05-02T10:24:13.947Z,10.07
2023-05-02T10:29:31.068Z,3.43
2023-05-02T10:34:34.906Z,2.53
2023-05-02T10:39:38.841Z,3.55
2023-05-02T10:44:43.048Z,33.17
2023-05-02T10:50:03.850Z,11.88
2023-05-02T10:55:24.930Z,9.20
2023-05-02T11:00:27.678Z,9.35
2023-05-02T11:05:30.594Z,3.75
2023-05-02T11:10:35.901Z,6.43
2023-05-02T11:15:41.337Z,3.33
2023-05-02T11:20:45.595Z,6.88
2023-05-02T11:25:49.064Z,13.20
2023-05-02T11:30:51.824Z,29.60
2023-05-02T11:35:54.611Z,69.07
2023-05-02T11:40:59.775Z,37.13
2023-05-02T11:46:08.487Z,79.20
2023-05-02T11:51:11.853Z,32.92
2023-05-02T11:56:14.701Z,87.18
2023-05-02T12:01:27.572Z,142.68
2023-05-02T12:06:30.443Z,346.95
2023-05-02T12:11:33.206Z,30.42
2023-05-02T12:16:36.282Z,42.42
2023-05-02T12:21:39.053Z,254.52
2023-05-02T12:26:41.958Z,1566.40
2023-05-02T12:31:52.805Z,135.77
2023-05-02T12:36:55.788Z,1767.00
2023-05-02T12:41:58.678Z,1999.90
2023-05-02T12:47:02.167Z,1999.90
2023-05-02T12:52:13.370Z,1999.90
2023-05-02T12:57:26.794Z,1999.90
2023-05-02T13:02:29.499Z,1999.90
2023-05-02T13:07:32.346Z,1999.90
2023-05-02T13:12:38.016Z,1999.90
2023-05-02T13:17:41.296Z,1999.90
2023-05-02T13:22:43.876Z,1999.90
2023-05-02T13:27:55.515Z,1999.90
2023-05-02T13:32:59.734Z,1999.90
2023-05-02T13:38:02.537Z,1999.90
2023-05-02T13:43:05.323Z,1999.90
2023-05-02T13:48:08.211Z,1999.90
2023-05-02T13:53:10.950Z,1999.90
2023-05-02T13:58:13.615Z,1999.90
2023-05-02T14:03:17.124Z,1999.90
2023-05-02T14:08:24.487Z,1999.90
2023-05-02T14:13:37.152Z,1999.90
2023-05-02T14:18:39.871Z,1999.90
2023-05-02T14:23:42.622Z,1999.90
2023-05-02T14:28:45.256Z,1999.90
2023-05-02T14:33:48.203Z,1999.90
2023-05-02T14:38:50.807Z,1999.90
2023-05-02T14:44:04.689Z,1999.90
2023-05-02T14:49:07.316Z,1999.90
2023-05-02T14:54:09.833Z,1999.90
2023-05-02T14:59:15.632Z,1999.90
2023-05-02T15:04:20.273Z,1999.90
2023-05-02T15:09:23.108Z,1999.90
2023-05-02T15:14:25.687Z,1999.90
2023-05-02T15:19:28.811Z,1999.90
2023-05-02T15:24:31.773Z,1999.90
2023-05-02T15:29:35.198Z,1999.90
2023-05-02T15:34:37.778Z,1999.90
2023-05-02T15:39:47.772Z,1999.90
2023-05-02T15:45:00.351Z,1999.90
2023-05-02T15:50:03.352Z,1999.90
2023-05-02T15:55:06.659Z,1999.90
2023-05-02T16:00:12.229Z,1999.90
2023-05-02T16:05:14.984Z,1999.90
2023-05-02T16:10:17.523Z,1999.90
2023-05-02T16:15:21.260Z,1999.90
2023-05-02T16:20:23.889Z,1999.90
2023-05-02T16:25:26.638Z,1999.90
2023-05-02T16:30:29.361Z,1999.90
2023-05-02T16:35:32.005Z,1999.90
2023-05-02T16:40:34.952Z,72.10
2023-05-02T16:45:37.516Z,289.85
2023-05-02T16:50:40.044Z,168.13
2023-05-02T16:55:42.637Z,301.70
2023-05-02T17:04:39.674Z,66.30
2023-05-02T17:09:44.359Z,225.67
2023-05-02T17:19:51.561Z,177.57
2023-05-02T17:24:55.656Z,403.70
2023-05-02T17:29:59.553Z,343.55
2023-05-02T17:35:09.932Z,356.40
2023-05-02T17:40:13.470Z,349.53
2023-05-02T17:45:17.601Z,337.58
2023-05-02T17:50:20.928Z,308.08
2023-05-02T17:55:38.017Z,1999.90
2023-05-02T18:00:52.125Z,639.75
2023-05-02T18:05:55.722Z,56.03
2023-05-02T18:11:00.776Z,68.60
2023-05-02T18:21:10.573Z,8.55
2023-05-02T18:26:14.862Z,3.58
2023-05-02T18:31:18.511Z,9.63
2023-05-02T18:36:29.446Z,12.30
2023-05-02T18:41:35.590Z,15.23
2023-05-02T18:46:39.188Z,14.05
2023-05-02T18:56:47.825Z,8.98
2023-05-02T19:01:51.817Z,22.47
2023-05-02T19:06:55.904Z,0.57
2023-05-02T19:11:59.346Z,2.42
2023-05-02T19:17:03.175Z,8.63
2023-05-02T19:22:06.730Z,3.17
2023-05-02T19:27:10.624Z,10.10
2023-05-02T19:32:15.292Z,1.83
2023-05-02T19:42:32.158Z,2.08
2023-05-02T19:47:35.548Z,10.57
2023-05-02T19:52:42.513Z,47.78
2023-05-02T19:57:45.898Z,36.80
2023-05-02T20:02:51.331Z,114.97
2023-05-02T20:07:54.994Z,68.53
2023-05-02T20:13:05.671Z,46.60
2023-05-02T20:18:10.079Z,51.75
2023-05-02T20:23:14.210Z,27.35
2023-05-02T20:28:27.631Z,14.53
2023-05-02T20:33:41.606Z,40.35
2023-05-02T20:38:48.706Z,76.88
2023-05-02T20:43:52.484Z,45.53
2023-05-02T20:48:55.252Z,26.70
2023-05-02T20:53:58.250Z,6.97
2023-05-02T20:59:00.920Z,9.57
2023-05-02T21:04:05.028Z,97.82
2023-05-02T21:09:10.130Z,41.83
2023-05-02T21:14:12.762Z,33.80
2023-05-02T21:19:25.549Z,4.40
2023-05-02T21:24:28.217Z,2.72
2023-05-02T21:29:30.732Z,3.88
2023-05-02T21:34:33.451Z,1.38
2023-05-02T21:39:36.200Z,4.55
2023-05-02T21:44:38.857Z,10.07
2023-05-02T21:49:41.569Z,3.33
2023-05-02T21:54:47.987Z,16.25
2023-05-02T21:59:50.693Z,4.53
2023-05-02T22:04:53.373Z,5.55
2023-05-02T22:09:56.018Z,2.95
2023-05-02T22:14:58.811Z,10.10
2023-05-02T22:20:03.164Z,2.78
2023-05-02T22:25:06.941Z,11.55
2023-05-02T22:30:10.813Z,12.52
2023-05-02T22:35:13.368Z,7.38
2023-05-02T22:40:15.944Z,4.03
2023-05-02T22:45:18.996Z,6.50
2023-05-02T22:50:22.427Z,5.45
2023-05-02T22:55:39.328Z,4.45
2023-05-02T23:00:42.269Z,1.85
2023-05-02T23:05:45.022Z,13.95
2023-05-02T23:11:07.675Z,4.72
2023-05-02T23:16:10.394Z,47.08
2023-05-02T23:21:17.253Z,15.35
2023-05-02T23:26:19.801Z,13.98
2023-05-02T23:31:22.460Z,3.53
2023-05-02T23:36:43.488Z,6.28
2023-05-02T23:41:46.298Z,3.15
2023-05-02T23:46:51.273Z,3.90
2023-05-02T23:51:53.990Z,70.53
2023-05-02T23:56:57.725Z,40.38
